sensor_id;sensor_type;location;lat;lon;timestamp;P1;durP1;ratioP1;P2;durP2;ratioP2
28587;SDS011;15787;49.662;10.162;2023-05-14T00:00:50;14.23;;;6.55;;
28587;SDS011;15787;49.662;10.162;2023-05-14T00:03:22;16.50;;;6.53;;
28587;SDS011;15787;49.662;10.162;2023-05-14T00:05:55;12.88;;;6.75;;
28587;SDS011;15787;49.662;10.162;2023-05-14T00:08:29;9.63;;;5.28;;
28587;SDS011;15787;49.662;10.162;2023-05-14T00:11:02;10.18;;;5.72;;
28587;SDS011;15787;49.662;10.162;2023-05-14T00:13:34;9.68;;;5.95;;
28587;SDS011;15787;49.662;10.162;2023-05-14T00:16:09;7.88;;;5.18;;
28587;SDS011;15787;49.662;10.162;2023-05-14T00:18:43;19.67;;;5.85;;
28587;SDS011;15787;49.662;10.162;2023-05-14T00:21:16;28.35;;;6.20;;
28587;SDS011;15787;49.662;10.162;2023-05-14T00:23:49;45.67;;;7.80;;
28587;SDS011;15787;49.662;10.162;2023-05-14T00:26:21;24.38;;;6.13;;
28587;SDS011;15787;49.662;10.162;2023-05-14T00:28:54;40.22;;;7.32;;
28587;SDS011;15787;49.662;10.162;2023-05-14T00:31:28;32.38;;;9.00;;
28587;SDS011;15787;49.662;10.162;2023-05-14T00:34:01;23.05;;;6.00;;
28587;SDS011;15787;49.662;10.162;2023-05-14T00:36:35;22.38;;;5.30;;
28587;SDS011;15787;49.662;10.162;2023-05-14T00:39:08;14.77;;;4.90;;
28587;SDS011;15787;49.662;10.162;2023-05-14T00:41:41;21.02;;;5.97;;
28587;SDS011;15787;49.662;10.162;2023-05-14T00:44:14;12.60;;;5.13;;
28587;SDS011;15787;49.662;10.162;2023-05-14T00:46:48;13.25;;;5.18;;
28587;SDS011;15787;49.662;10.162;2023-05-14T00:49:21;19.55;;;5.63;;
28587;SDS011;15787;49.662;10.162;2023-05-14T00:51:55;13.80;;;5.38;;
28587;SDS011;15787;49.662;10.162;2023-05-14T00:54:29;11.02;;;4.72;;
28587;SDS011;15787;49.662;10.162;2023-05-14T00:57:03;17.95;;;6.80;;
28587;SDS011;15787;49.662;10.162;2023-05-14T00:59:38;21.02;;;6.57;;
28587;SDS011;15787;49.662;10.162;2023-05-14T01:02:14;22.52;;;5.85;;
28587;SDS011;15787;49.662;10.162;2023-05-14T01:04:47;21.08;;;6.13;;
28587;SDS011;15787;49.662;10.162;2023-05-14T01:07:24;27.10;;;6.82;;
28587;SDS011;15787;49.662;10.162;2023-05-14T01:10:04;9.90;;;4.97;;
28587;SDS011;15787;49.662;10.162;2023-05-14T01:12:42;15.30;;;5.90;;
28587;SDS011;15787;49.662;10.162;2023-05-14T01:18:09;13.27;;;5.60;;
28587;SDS011;15787;49.662;10.162;2023-05-14T01:20:45;17.48;;;6.13;;
28587;SDS011;15787;49.662;10.162;2023-05-14T01:23:23;12.60;;;5.55;;
28587;SDS011;15787;49.662;10.162;2023-05-14T01:25:56;18.70;;;6.22;;
28587;SDS011;15787;49.662;10.162;2023-05-14T01:28:30;23.30;;;5.65;;
28587;SDS011;15787;49.662;10.162;2023-05-14T01:31:07;23.38;;;5.78;;
28587;SDS011;15787;49.662;10.162;2023-05-14T01:33:44;18.45;;;5.80;;
28587;SDS011;15787;49.662;10.162;2023-05-14T01:36:20;17.70;;;5.38;;
28587;SDS011;15787;49.662;10.162;2023-05-14T01:38:55;19.23;;;6.28;;
28587;SDS011;15787;49.662;10.162;2023-05-14T01:41:29;10.57;;;6.15;;
28587;SDS011;15787;49.662;10.162;2023-05-14T01:44:04;18.55;;;5.43;;
28587;SDS011;15787;49.662;10.162;2023-05-14T01:46:37;14.88;;;5.25;;
28587;SDS011;15787;49.662;10.162;2023-05-14T01:49:10;20.83;;;5.65;;
28587;SDS011;15787;49.662;10.162;2023-05-14T01:51:43;17.02;;;6.43;;
28587;SDS011;15787;49.662;10.162;2023-05-14T01:54:18;18.40;;;4.97;;
28587;SDS011;15787;49.662;10.162;2023-05-14T01:56:51;18.20;;;6.72;;
28587;SDS011;15787;49.662;10.162;2023-05-14T01:59:24;13.30;;;5.53;;
28587;SDS011;15787;49.662;10.162;2023-05-14T02:01:56;19.13;;;5.75;;
28587;SDS011;15787;49.662;10.162;2023-05-14T02:04:29;12.82;;;5.97;;
28587;SDS011;15787;49.662;10.162;2023-05-14T02:07:03;11.75;;;5.50;;
28587;SDS011;15787;49.662;10.162;2023-05-14T02:09:37;10.45;;;5.18;;
28587;SDS011;15787;49.662;10.162;2023-05-14T02:12:11;10.25;;;5.60;;
28587;SDS011;15787;49.662;10.162;2023-05-14T02:14:44;9.63;;;5.72;;
28587;SDS011;15787;49.662;10.162;2023-05-14T02:17:17;15.45;;;5.97;;
28587;SDS011;15787;49.662;10.162;2023-05-14T02:19:50;14.60;;;5.93;;
28587;SDS011;15787;49.662;10.162;2023-05-14T02:22:23;33.55;;;8.00;;
28587;SDS011;15787;49.662;10.162;2023-05-14T02:24:57;18.65;;;6.43;;
28587;SDS011;15787;49.662;10.162;2023-05-14T02:27:31;26.80;;;6.53;;
28587;SDS011;15787;49.662;10.162;2023-05-14T02:30:06;25.20;;;6.80;;
28587;SDS011;15787;49.662;10.162;2023-05-14T02:32:42;22.20;;;6.82;;
28587;SDS011;15787;49.662;10.162;2023-05-14T02:35:15;32.60;;;8.13;;
28587;SDS011;15787;49.662;10.162;2023-05-14T02:37:48;25.33;;;7.03;;
28587;SDS011;15787;49.662;10.162;2023-05-14T02:40:26;26.42;;;6.85;;
28587;SDS011;15787;49.662;10.162;2023-05-14T02:42:59;16.83;;;6.20;;
28587;SDS011;15787;49.662;10.162;2023-05-14T02:45:32;18.25;;;6.28;;
28587;SDS011;15787;49.662;10.162;2023-05-14T02:48:05;15.70;;;5.65;;
28587;SDS011;15787;49.662;10.162;2023-05-14T02:50:39;28.63;;;6.85;;
28587;SDS011;15787;49.662;10.162;2023-05-14T02:53:12;20.55;;;7.55;;
28587;SDS011;15787;49.662;10.162;2023-05-14T02:55:46;17.27;;;6.35;;
28587;SDS011;15787;49.662;10.162;2023-05-14T02:58:19;21.05;;;5.80;;
28587;SDS011;15787;49.662;10.162;2023-05-14T03:00:58;16.23;;;5.45;;
28587;SDS011;15787;49.662;10.162;2023-05-14T03:03:33;18.52;;;4.85;;
28587;SDS011;15787;49.662;10.162;2023-05-14T03:06:06;20.00;;;6.18;;
28587;SDS011;15787;49.662;10.162;2023-05-14T03:08:39;16.17;;;5.75;;
28587;SDS011;15787;49.662;10.162;2023-05-14T03:11:13;15.30;;;6.13;;
28587;SDS011;15787;49.662;10.162;2023-05-14T03:13:46;11.35;;;4.93;;
28587;SDS011;15787;49.662;10.162;2023-05-14T03:16:19;16.08;;;5.45;;
28587;SDS011;15787;49.662;10.162;2023-05-14T03:18:53;12.20;;;4.97;;
28587;SDS011;15787;49.662;10.162;2023-05-14T03:21:26;25.92;;;5.70;;
28587;SDS011;15787;49.662;10.162;2023-05-14T03:23:59;12.05;;;5.32;;
28587;SDS011;15787;49.662;10.162;2023-05-14T03:26:33;22.33;;;5.72;;
28587;SDS011;15787;49.662;10.162;2023-05-14T03:29:07;18.42;;;5.55;;
28587;SDS011;15787;49.662;10.162;2023-05-14T03:31:41;20.25;;;6.07;;
28587;SDS011;15787;49.662;10.162;2023-05-14T03:34:14;18.35;;;5.40;;
28587;SDS011;15787;49.662;10.162;2023-05-14T03:36:46;15.57;;;6.05;;
28587;SDS011;15787;49.662;10.162;2023-05-14T03:39:19;17.52;;;6.47;;
28587;SDS011;15787;49.662;10.162;2023-05-14T03:41:54;15.68;;;6.03;;
28587;SDS011;15787;49.662;10.162;2023-05-14T03:44:29;19.33;;;5.63;;
28587;SDS011;15787;49.662;10.162;2023-05-14T03:47:02;15.85;;;5.88;;
28587;SDS011;15787;49.662;10.162;2023-05-14T03:49:35;11.18;;;5.47;;
28587;SDS011;15787;49.662;10.162;2023-05-14T03:52:09;18.67;;;6.35;;
28587;SDS011;15787;49.662;10.162;2023-05-14T03:54:42;12.70;;;6.03;;
28587;SDS011;15787;49.662;10.162;2023-05-14T03:57:16;16.45;;;6.97;;
28587;SDS011;15787;49.662;10.162;2023-05-14T03:59:49;12.98;;;6.43;;
28587;SDS011;15787;49.662;10.162;2023-05-14T04:02:23;16.45;;;6.18;;
28587;SDS011;15787;49.662;10.162;2023-05-14T04:04:56;14.98;;;6.45;;
28587;SDS011;15787;49.662;10.162;2023-05-14T04:07:29;12.50;;;5.88;;
28587;SDS011;15787;49.662;10.162;2023-05-14T04:10:02;8.35;;;5.80;;
28587;SDS011;15787;49.662;10.162;2023-05-14T04:12:39;12.68;;;6.25;;
28587;SDS011;15787;49.662;10.162;2023-05-14T04:15:13;8.82;;;5.55;;
28587;SDS011;15787;49.662;10.162;2023-05-14T04:17:46;14.90;;;6.22;;
28587;SDS011;15787;49.662;10.162;2023-05-14T04:20:20;10.60;;;5.35;;
28587;SDS011;15787;49.662;10.162;2023-05-14T04:22:56;18.65;;;4.97;;
28587;SDS011;15787;49.662;10.162;2023-05-14T04:25:31;14.55;;;5.65;;
28587;SDS011;15787;49.662;10.162;2023-05-14T04:28:06;7.68;;;5.22;;
28587;SDS011;15787;49.662;10.162;2023-05-14T04:30:40;15.70;;;6.07;;
28587;SDS011;15787;49.662;10.162;2023-05-14T04:33:13;13.30;;;5.38;;
28587;SDS011;15787;49.662;10.162;2023-05-14T04:35:47;11.10;;;5.88;;
28587;SDS011;15787;49.662;10.162;2023-05-14T04:38:21;10.70;;;5.60;;
28587;SDS011;15787;49.662;10.162;2023-05-14T04:40:57;10.82;;;5.35;;
28587;SDS011;15787;49.662;10.162;2023-05-14T04:43:31;18.40;;;5.97;;
28587;SDS011;15787;49.662;10.162;2023-05-14T04:46:04;12.40;;;5.10;;
28587;SDS011;15787;49.662;10.162;2023-05-14T04:48:37;11.65;;;5.72;;
28587;SDS011;15787;49.662;10.162;2023-05-14T04:51:10;15.30;;;6.68;;
28587;SDS011;15787;49.662;10.162;2023-05-14T04:53:44;12.10;;;6.72;;
28587;SDS011;15787;49.662;10.162;2023-05-14T04:56:17;13.25;;;6.43;;
28587;SDS011;15787;49.662;10.162;2023-05-14T04:58:51;16.80;;;7.03;;
28587;SDS011;15787;49.662;10.162;2023-05-14T05:01:24;10.70;;;6.57;;
28587;SDS011;15787;49.662;10.162;2023-05-14T05:03:57;12.52;;;6.75;;
28587;SDS011;15787;49.662;10.162;2023-05-14T05:06:31;32.97;;;20.30;;
28587;SDS011;15787;49.662;10.162;2023-05-14T05:09:04;17.98;;;11.80;;
28587;SDS011;15787;49.662;10.162;2023-05-14T05:11:36;49.35;;;27.30;;
28587;SDS011;15787;49.662;10.162;2023-05-14T05:14:11;29.98;;;17.23;;
28587;SDS011;15787;49.662;10.162;2023-05-14T05:16:44;20.45;;;10.25;;
28587;SDS011;15787;49.662;10.162;2023-05-14T05:19:17;12.95;;;6.85;;
28587;SDS011;15787;49.662;10.162;2023-05-14T05:21:59;13.50;;;6.80;;
28587;SDS011;15787;49.662;10.162;2023-05-14T05:24:32;13.43;;;6.93;;
28587;SDS011;15787;49.662;10.162;2023-05-14T05:27:05;11.82;;;6.50;;
28587;SDS011;15787;49.662;10.162;2023-05-14T05:29:40;16.02;;;6.65;;
28587;SDS011;15787;49.662;10.162;2023-05-14T05:32:12;15.40;;;6.85;;
28587;SDS011;15787;49.662;10.162;2023-05-14T05:34:45;17.70;;;7.35;;
28587;SDS011;15787;49.662;10.162;2023-05-14T05:37:19;12.98;;;7.28;;
28587;SDS011;15787;49.662;10.162;2023-05-14T05:39:52;14.95;;;7.43;;
28587;SDS011;15787;49.662;10.162;2023-05-14T05:42:25;15.02;;;7.88;;
28587;SDS011;15787;49.662;10.162;2023-05-14T05:44:59;20.08;;;7.88;;
28587;SDS011;15787;49.662;10.162;2023-05-14T05:47:32;12.60;;;7.32;;
28587;SDS011;15787;49.662;10.162;2023-05-14T05:50:06;13.52;;;7.95;;
28587;SDS011;15787;49.662;10.162;2023-05-14T05:52:40;15.68;;;6.57;;
28587;SDS011;15787;49.662;10.162;2023-05-14T05:55:13;11.10;;;7.28;;
28587;SDS011;15787;49.662;10.162;2023-05-14T05:57:46;13.98;;;7.18;;
28587;SDS011;15787;49.662;10.162;2023-05-14T06:00:20;13.75;;;7.78;;
28587;SDS011;15787;49.662;10.162;2023-05-14T06:02:55;15.18;;;7.18;;
28587;SDS011;15787;49.662;10.162;2023-05-14T06:05:28;11.63;;;7.28;;
28587;SDS011;15787;49.662;10.162;2023-05-14T06:08:01;11.35;;;6.85;;
28587;SDS011;15787;49.662;10.162;2023-05-14T06:10:34;17.50;;;7.90;;
28587;SDS011;15787;49.662;10.162;2023-05-14T06:13:07;12.05;;;7.32;;
28587;SDS011;15787;49.662;10.162;2023-05-14T06:15:42;14.45;;;7.32;;
28587;SDS011;15787;49.662;10.162;2023-05-14T06:18:15;10.27;;;6.65;;
28587;SDS011;15787;49.662;10.162;2023-05-14T06:20:48;13.02;;;7.95;;
28587;SDS011;15787;49.662;10.162;2023-05-14T06:23:21;12.43;;;6.97;;
28587;SDS011;15787;49.662;10.162;2023-05-14T06:25:54;13.32;;;7.85;;
28587;SDS011;15787;49.662;10.162;2023-05-14T06:28:27;9.73;;;6.50;;
28587;SDS011;15787;49.662;10.162;2023-05-14T06:31:01;11.10;;;6.85;;
28587;SDS011;15787;49.662;10.162;2023-05-14T06:33:35;8.98;;;6.38;;
28587;SDS011;15787;49.662;10.162;2023-05-14T06:36:08;11.20;;;7.45;;
28587;SDS011;15787;49.662;10.162;2023-05-14T06:38:41;8.88;;;6.68;;
28587;SDS011;15787;49.662;10.162;2023-05-14T06:41:14;8.43;;;5.90;;
28587;SDS011;15787;49.662;10.162;2023-05-14T06:43:48;10.45;;;6.10;;
28587;SDS011;15787;49.662;10.162;2023-05-14T06:46:22;9.57;;;6.28;;
28587;SDS011;15787;49.662;10.162;2023-05-14T06:49:02;8.52;;;6.25;;
28587;SDS011;15787;49.662;10.162;2023-05-14T06:51:35;9.45;;;6.70;;
28587;SDS011;15787;49.662;10.162;2023-05-14T06:54:09;9.82;;;6.72;;
28587;SDS011;15787;49.662;10.162;2023-05-14T06:56:42;10.02;;;5.80;;
28587;SDS011;15787;49.662;10.162;2023-05-14T06:59:15;11.48;;;6.90;;
28587;SDS011;15787;49.662;10.162;2023-05-14T07:01:49;11.05;;;6.47;;
28587;SDS011;15787;49.662;10.162;2023-05-14T07:04:22;7.25;;;5.60;;
28587;SDS011;15787;49.662;10.162;2023-05-14T07:06:55;10.65;;;6.20;;
28587;SDS011;15787;49.662;10.162;2023-05-14T07:09:28;8.27;;;5.25;;
28587;SDS011;15787;49.662;10.162;2023-05-14T07:12:01;9.02;;;5.88;;
28587;SDS011;15787;49.662;10.162;2023-05-14T07:14:34;9.18;;;5.93;;
28587;SDS011;15787;49.662;10.162;2023-05-14T07:17:09;8.52;;;4.90;;
28587;SDS011;15787;49.662;10.162;2023-05-14T07:19:42;6.90;;;5.30;;
28587;SDS011;15787;49.662;10.162;2023-05-14T07:22:15;13.15;;;6.15;;
28587;SDS011;15787;49.662;10.162;2023-05-14T07:24:48;8.75;;;5.75;;
28587;SDS011;15787;49.662;10.162;2023-05-14T07:27:22;8.25;;;5.65;;
28587;SDS011;15787;49.662;10.162;2023-05-14T07:29:54;9.90;;;6.00;;
28587;SDS011;15787;49.662;10.162;2023-05-14T07:32:29;7.65;;;5.75;;
28587;SDS011;15787;49.662;10.162;2023-05-14T07:35:02;7.95;;;5.93;;
28587;SDS011;15787;49.662;10.162;2023-05-14T07:37:36;8.32;;;5.85;;
28587;SDS011;15787;49.662;10.162;2023-05-14T07:40:09;10.80;;;7.03;;
28587;SDS011;15787;49.662;10.162;2023-05-14T07:42:42;7.32;;;5.55;;
28587;SDS011;15787;49.662;10.162;2023-05-14T07:45:15;8.13;;;6.03;;
28587;SDS011;15787;49.662;10.162;2023-05-14T07:47:52;7.63;;;5.80;;
28587;SDS011;15787;49.662;10.162;2023-05-14T07:50:25;10.82;;;6.30;;
28587;SDS011;15787;49.662;10.162;2023-05-14T07:52:58;8.30;;;6.05;;
28587;SDS011;15787;49.662;10.162;2023-05-14T07:55:31;10.88;;;6.10;;
28587;SDS011;15787;49.662;10.162;2023-05-14T07:58:04;9.57;;;6.40;;
28587;SDS011;15787;49.662;10.162;2023-05-14T08:00:37;8.32;;;6.07;;
28587;SDS011;15787;49.662;10.162;2023-05-14T08:03:11;7.90;;;5.63;;
28587;SDS011;15787;49.662;10.162;2023-05-14T08:05:45;7.88;;;5.63;;
28587;SDS011;15787;49.662;10.162;2023-05-14T08:08:18;9.02;;;5.78;;
28587;SDS011;15787;49.662;10.162;2023-05-14T08:10:52;7.93;;;5.90;;
28587;SDS011;15787;49.662;10.162;2023-05-14T08:13:26;9.10;;;5.60;;
28587;SDS011;15787;49.662;10.162;2023-05-14T08:15:58;8.35;;;5.85;;
28587;SDS011;15787;49.662;10.162;2023-05-14T08:18:33;7.55;;;5.57;;
28587;SDS011;15787;49.662;10.162;2023-05-14T08:21:06;8.85;;;5.63;;
28587;SDS011;15787;49.662;10.162;2023-05-14T08:23:39;9.77;;;5.53;;
28587;SDS011;15787;49.662;10.162;2023-05-14T08:26:12;7.82;;;5.35;;
28587;SDS011;15787;49.662;10.162;2023-05-14T08:28:44;8.45;;;5.47;;
28587;SDS011;15787;49.662;10.162;2023-05-14T08:31:17;8.60;;;5.88;;
28587;SDS011;15787;49.662;10.162;2023-05-14T08:33:52;8.38;;;6.35;;
28587;SDS011;15787;49.662;10.162;2023-05-14T08:36:25;8.57;;;6.00;;
28587;SDS011;15787;49.662;10.162;2023-05-14T08:38:57;7.03;;;5.28;;
28587;SDS011;15787;49.662;10.162;2023-05-14T08:41:30;8.65;;;6.38;;
28587;SDS011;15787;49.662;10.162;2023-05-14T08:44:05;7.35;;;5.78;;
28587;SDS011;15787;49.662;10.162;2023-05-14T08:46:40;9.13;;;5.15;;
28587;SDS011;15787;49.662;10.162;2023-05-14T08:49:20;8.15;;;5.68;;
28587;SDS011;15787;49.662;10.162;2023-05-14T08:52:00;9.48;;;5.90;;
28587;SDS011;15787;49.662;10.162;2023-05-14T08:54:34;7.55;;;5.70;;
28587;SDS011;15787;49.662;10.162;2023-05-14T08:57:08;8.32;;;5.63;;
28587;SDS011;15787;49.662;10.162;2023-05-14T08:59:44;7.38;;;5.82;;
28587;SDS011;15787;49.662;10.162;2023-05-14T09:02:18;7.32;;;5.57;;
28587;SDS011;15787;49.662;10.162;2023-05-14T09:09:21;8.02;;;5.60;;
28587;SDS011;15787;49.662;10.162;2023-05-14T09:13:56;8.88;;;4.88;;
28587;SDS011;15787;49.662;10.162;2023-05-14T09:23:28;9.25;;;6.15;;
28587;SDS011;15787;49.662;10.162;2023-05-14T09:25:01;7.47;;;5.28;;
28587;SDS011;15787;49.662;10.162;2023-05-14T09:27:50;6.60;;;4.85;;
28587;SDS011;15787;49.662;10.162;2023-05-14T09:30:49;7.70;;;5.25;;
28587;SDS011;15787;49.662;10.162;2023-05-14T09:33:26;10.35;;;4.90;;
28587;SDS011;15787;49.662;10.162;2023-05-14T09:36:04;10.40;;;5.18;;
28587;SDS011;15787;49.662;10.162;2023-05-14T09:39:50;7.93;;;5.10;;
28587;SDS011;15787;49.662;10.162;2023-05-14T09:42:43;8.07;;;4.90;;
28587;SDS011;15787;49.662;10.162;2023-05-14T09:45:17;6.72;;;4.95;;
28587;SDS011;15787;49.662;10.162;2023-05-14T09:47:52;7.63;;;5.00;;
28587;SDS011;15787;49.662;10.162;2023-05-14T09:50:26;8.45;;;4.60;;
28587;SDS011;15787;49.662;10.162;2023-05-14T09:52:59;6.47;;;4.68;;
28587;SDS011;15787;49.662;10.162;2023-05-14T09:55:32;6.38;;;4.53;;
28587;SDS011;15787;49.662;10.162;2023-05-14T09:58:17;5.85;;;4.10;;
28587;SDS011;15787;49.662;10.162;2023-05-14T10:01:02;6.15;;;4.53;;
28587;SDS011;15787;49.662;10.162;2023-05-14T10:03:47;6.22;;;4.40;;
28587;SDS011;15787;49.662;10.162;2023-05-14T10:06:37;5.93;;;3.45;;
28587;SDS011;15787;49.662;10.162;2023-05-14T10:09:33;6.60;;;4.20;;
28587;SDS011;15787;49.662;10.162;2023-05-14T10:12:37;8.40;;;5.35;;
28587;SDS011;15787;49.662;10.162;2023-05-14T10:15:15;5.55;;;4.22;;
28587;SDS011;15787;49.662;10.162;2023-05-14T10:17:54;5.40;;;3.85;;
28587;SDS011;15787;49.662;10.162;2023-05-14T10:20:47;6.88;;;4.88;;
28587;SDS011;15787;49.662;10.162;2023-05-14T10:23:35;6.43;;;4.50;;
28587;SDS011;15787;49.662;10.162;2023-05-14T10:29:31;4.53;;;3.65;;
28587;SDS011;15787;49.662;10.162;2023-05-14T10:32:13;6.70;;;4.15;;
28587;SDS011;15787;49.662;10.162;2023-05-14T10:34:47;6.55;;;4.55;;
28587;SDS011;15787;49.662;10.162;2023-05-14T10:37:23;7.40;;;5.10;;
28587;SDS011;15787;49.662;10.162;2023-05-14T10:39:58;8.60;;;5.40;;
28587;SDS011;15787;49.662;10.162;2023-05-14T10:42:45;5.60;;;4.00;;
28587;SDS011;15787;49.662;10.162;2023-05-14T10:45:18;6.18;;;4.28;;
28587;SDS011;15787;49.662;10.162;2023-05-14T10:47:59;6.27;;;4.23;;
28587;SDS011;15787;49.662;10.162;2023-05-14T10:50:35;4.93;;;3.65;;
28587;SDS011;15787;49.662;10.162;2023-05-14T10:53:09;5.20;;;3.85;;
28587;SDS011;15787;49.662;10.162;2023-05-14T10:55:42;5.43;;;3.80;;
28587;SDS011;15787;49.662;10.162;2023-05-14T10:58:16;5.45;;;4.18;;
28587;SDS011;15787;49.662;10.162;2023-05-14T11:00:49;7.82;;;3.45;;
28587;SDS011;15787;49.662;10.162;2023-05-14T11:03:29;6.70;;;3.22;;
28587;SDS011;15787;49.662;10.162;2023-05-14T11:06:02;5.50;;;3.33;;
28587;SDS011;15787;49.662;10.162;2023-05-14T11:08:37;6.07;;;3.80;;
28587;SDS011;15787;49.662;10.162;2023-05-14T11:11:10;5.15;;;3.80;;
28587;SDS011;15787;49.662;10.162;2023-05-14T11:13:43;5.10;;;3.80;;
28587;SDS011;15787;49.662;10.162;2023-05-14T11:16:17;4.13;;;3.20;;
28587;SDS011;15787;49.662;10.162;2023-05-14T11:19:02;4.95;;;3.55;;
28587;SDS011;15787;49.662;10.162;2023-05-14T11:21:36;6.57;;;3.50;;
28587;SDS011;15787;49.662;10.162;2023-05-14T11:24:09;4.80;;;3.15;;
28587;SDS011;15787;49.662;10.162;2023-05-14T11:26:42;3.83;;;2.75;;
28587;SDS011;15787;49.662;10.162;2023-05-14T11:29:15;4.32;;;2.88;;
28587;SDS011;15787;49.662;10.162;2023-05-14T11:31:48;4.57;;;3.13;;
28587;SDS011;15787;49.662;10.162;2023-05-14T11:34:23;4.43;;;2.70;;
28587;SDS011;15787;49.662;10.162;2023-05-14T11:36:56;3.75;;;2.95;;
28587;SDS011;15787;49.662;10.162;2023-05-14T11:39:30;5.03;;;2.90;;
28587;SDS011;15787;49.662;10.162;2023-05-14T11:42:04;5.53;;;3.13;;
28587;SDS011;15787;49.662;10.162;2023-05-14T11:44:42;5.90;;;3.20;;
28587;SDS011;15787;49.662;10.162;2023-05-14T11:47:18;4.72;;;2.72;;
28587;SDS011;15787;49.662;10.162;2023-05-14T11:49:53;4.50;;;3.05;;
28587;SDS011;15787;49.662;10.162;2023-05-14T11:52:26;5.30;;;3.00;;
28587;SDS011;15787;49.662;10.162;2023-05-14T11:54:59;4.03;;;2.83;;
28587;SDS011;15787;49.662;10.162;2023-05-14T11:57:35;3.58;;;2.50;;
28587;SDS011;15787;49.662;10.162;2023-05-14T12:00:08;3.95;;;2.80;;
28587;SDS011;15787;49.662;10.162;2023-05-14T12:02:43;4.38;;;2.63;;
28587;SDS011;15787;49.662;10.162;2023-05-14T12:05:20;4.38;;;3.30;;
28587;SDS011;15787;49.662;10.162;2023-05-14T12:07:53;4.40;;;2.90;;
28587;SDS011;15787;49.662;10.162;2023-05-14T12:10:26;5.18;;;3.08;;
28587;SDS011;15787;49.662;10.162;2023-05-14T12:12:59;4.47;;;2.80;;
28587;SDS011;15787;49.662;10.162;2023-05-14T12:15:32;2.85;;;2.30;;
28587;SDS011;15787;49.662;10.162;2023-05-14T12:18:07;5.13;;;2.47;;
28587;SDS011;15787;49.662;10.162;2023-05-14T12:20:58;3.40;;;2.53;;
28587;SDS011;15787;49.662;10.162;2023-05-14T12:23:33;3.70;;;2.83;;
28587;SDS011;15787;49.662;10.162;2023-05-14T12:26:07;3.92;;;2.92;;
28587;SDS011;15787;49.662;10.162;2023-05-14T12:28:40;2.88;;;2.33;;
28587;SDS011;15787;49.662;10.162;2023-05-14T12:31:14;3.95;;;2.70;;
28587;SDS011;15787;49.662;10.162;2023-05-14T12:33:47;6.43;;;2.78;;
28587;SDS011;15787;49.662;10.162;2023-05-14T12:36:21;3.70;;;2.92;;
28587;SDS011;15787;49.662;10.162;2023-05-14T12:38:58;3.67;;;2.38;;
28587;SDS011;15787;49.662;10.162;2023-05-14T12:41:34;4.03;;;2.47;;
28587;SDS011;15787;49.662;10.162;2023-05-14T12:44:07;4.05;;;2.75;;
28587;SDS011;15787;49.662;10.162;2023-05-14T12:46:40;4.28;;;3.03;;
28587;SDS011;15787;49.662;10.162;2023-05-14T12:49:13;7.78;;;3.17;;
28587;SDS011;15787;49.662;10.162;2023-05-14T12:51:48;4.30;;;2.60;;
28587;SDS011;15787;49.662;10.162;2023-05-14T12:54:33;5.32;;;2.72;;
28587;SDS011;15787;49.662;10.162;2023-05-14T12:57:06;3.63;;;2.80;;
28587;SDS011;15787;49.662;10.162;2023-05-14T12:59:39;2.83;;;2.00;;
28587;SDS011;15787;49.662;10.162;2023-05-14T13:02:12;3.30;;;2.60;;
28587;SDS011;15787;49.662;10.162;2023-05-14T13:04:47;3.80;;;2.70;;
28587;SDS011;15787;49.662;10.162;2023-05-14T13:07:21;4.55;;;2.67;;
28587;SDS011;15787;49.662;10.162;2023-05-14T13:09:54;4.72;;;3.00;;
28587;SDS011;15787;49.662;10.162;2023-05-14T13:12:27;3.40;;;2.63;;
28587;SDS011;15787;49.662;10.162;2023-05-14T13:15:00;4.85;;;3.03;;
28587;SDS011;15787;49.662;10.162;2023-05-14T13:17:33;6.22;;;3.15;;
28587;SDS011;15787;49.662;10.162;2023-05-14T13:20:07;3.55;;;2.60;;
28587;SDS011;15787;49.662;10.162;2023-05-14T13:22:42;4.20;;;2.95;;
28587;SDS011;15787;49.662;10.162;2023-05-14T13:25:15;3.83;;;2.55;;
28587;SDS011;15787;49.662;10.162;2023-05-14T13:27:48;4.88;;;3.13;;
28587;SDS011;15787;49.662;10.162;2023-05-14T13:30:21;3.97;;;3.17;;
28587;SDS011;15787;49.662;10.162;2023-05-14T13:32:54;5.63;;;2.95;;
28587;SDS011;15787;49.662;10.162;2023-05-14T13:35:27;5.25;;;3.45;;
28587;SDS011;15787;49.662;10.162;2023-05-14T13:38:02;3.85;;;2.80;;
28587;SDS011;15787;49.662;10.162;2023-05-14T13:40:35;4.13;;;2.72;;
28587;SDS011;15787;49.662;10.162;2023-05-14T13:43:07;3.70;;;2.90;;
28587;SDS011;15787;49.662;10.162;2023-05-14T13:45:41;4.82;;;2.88;;
28587;SDS011;15787;49.662;10.162;2023-05-14T13:48:14;3.25;;;2.70;;
28587;SDS011;15787;49.662;10.162;2023-05-14T13:50:47;4.07;;;3.15;;
28587;SDS011;15787;49.662;10.162;2023-05-14T13:53:22;4.13;;;2.50;;
28587;SDS011;15787;49.662;10.162;2023-05-14T13:55:58;3.65;;;2.70;;
28587;SDS011;15787;49.662;10.162;2023-05-14T13:58:32;5.63;;;2.92;;
28587;SDS011;15787;49.662;10.162;2023-05-14T14:01:04;5.53;;;2.83;;
28587;SDS011;15787;49.662;10.162;2023-05-14T14:03:38;3.95;;;2.47;;
28587;SDS011;15787;49.662;10.162;2023-05-14T14:06:11;3.45;;;2.45;;
28587;SDS011;15787;49.662;10.162;2023-05-14T14:08:45;3.95;;;2.70;;
28587;SDS011;15787;49.662;10.162;2023-05-14T14:11:18;7.03;;;2.75;;
28587;SDS011;15787;49.662;10.162;2023-05-14T14:13:52;4.50;;;2.75;;
28587;SDS011;15787;49.662;10.162;2023-05-14T14:16:25;5.65;;;2.80;;
28587;SDS011;15787;49.662;10.162;2023-05-14T14:18:58;4.35;;;3.03;;
28587;SDS011;15787;49.662;10.162;2023-05-14T14:21:31;3.10;;;2.60;;
28587;SDS011;15787;49.662;10.162;2023-05-14T14:24:06;3.92;;;2.50;;
28587;SDS011;15787;49.662;10.162;2023-05-14T14:26:38;3.60;;;2.80;;
28587;SDS011;15787;49.662;10.162;2023-05-14T14:29:11;4.95;;;2.80;;
28587;SDS011;15787;49.662;10.162;2023-05-14T14:31:44;5.40;;;3.25;;
28587;SDS011;15787;49.662;10.162;2023-05-14T14:34:17;4.15;;;3.00;;
28587;SDS011;15787;49.662;10.162;2023-05-14T14:36:50;3.47;;;2.58;;
28587;SDS011;15787;49.662;10.162;2023-05-14T14:39:25;3.80;;;2.65;;
28587;SDS011;15787;49.662;10.162;2023-05-14T14:41:58;4.78;;;3.03;;
28587;SDS011;15787;49.662;10.162;2023-05-14T14:44:31;5.60;;;2.60;;
28587;SDS011;15787;49.662;10.162;2023-05-14T14:47:04;4.22;;;2.40;;
28587;SDS011;15787;49.662;10.162;2023-05-14T14:49:37;3.88;;;2.95;;
28587;SDS011;15787;49.662;10.162;2023-05-14T14:52:10;4.55;;;2.85;;
28587;SDS011;15787;49.662;10.162;2023-05-14T14:54:45;3.25;;;2.63;;
28587;SDS011;15787;49.662;10.162;2023-05-14T14:57:18;4.35;;;3.10;;
28587;SDS011;15787;49.662;10.162;2023-05-14T14:59:51;3.13;;;2.33;;
28587;SDS011;15787;49.662;10.162;2023-05-14T15:02:24;2.80;;;2.30;;
28587;SDS011;15787;49.662;10.162;2023-05-14T15:04:57;4.88;;;2.83;;
28587;SDS011;15787;49.662;10.162;2023-05-14T15:07:30;4.38;;;2.90;;
28587;SDS011;15787;49.662;10.162;2023-05-14T15:10:05;4.13;;;2.70;;
28587;SDS011;15787;49.662;10.162;2023-05-14T15:12:39;4.60;;;3.17;;
28587;SDS011;15787;49.662;10.162;2023-05-14T15:15:12;3.22;;;2.60;;
28587;SDS011;15787;49.662;10.162;2023-05-14T15:17:45;3.92;;;2.88;;
28587;SDS011;15787;49.662;10.162;2023-05-14T15:20:18;4.57;;;2.80;;
28587;SDS011;15787;49.662;10.162;2023-05-14T15:22:51;4.38;;;2.63;;
28587;SDS011;15787;49.662;10.162;2023-05-14T15:25:26;5.15;;;3.10;;
28587;SDS011;15787;49.662;10.162;2023-05-14T15:27:58;3.50;;;2.75;;
28587;SDS011;15787;49.662;10.162;2023-05-14T15:30:32;4.97;;;2.78;;